sensor_id;sensor_type;location;lat;lon;timestamp;pressure;altitude;pressure_sealevel;temperature;humidity
30730;BME280;17476;48.458;7.928;2023-02-10T00:03:39;102019.97;;;-0.73;92.13
30730;BME280;17476;48.458;7.928;2023-02-10T00:06:06;102023.25;;;-1.00;92.77
30730;BME280;17476;48.458;7.928;2023-02-10T00:08:34;102022.25;;;-0.95;92.97
30730;BME280;17476;48.458;7.928;2023-02-10T00:11:09;102037.53;;;-0.90;92.22
30730;BME280;17476;48.458;7.928;2023-02-10T00:13:37;102029.47;;;-1.11;93.18
30730;BME280;17476;48.458;7.928;2023-02-10T00:16:06;102015.75;;;-1.10;93.19
30730;BME280;17476;48.458;7.928;2023-02-10T00:18:33;102030.91;;;-0.99;92.91
30730;BME280;17476;48.458;7.928;2023-02-10T00:21:15;102020.88;;;-1.10;93.83
30730;BME280;17476;48.458;7.928;2023-02-10T00:23:42;102012.16;;;-1.02;93.44
30730;BME280;17476;48.458;7.928;2023-02-10T00:26:11;102012.97;;;-1.02;92.80
30730;BME280;17476;48.458;7.928;2023-02-10T00:28:38;102015.53;;;-1.00;92.39
30730;BME280;17476;48.458;7.928;2023-02-10T00:31:13;102019.00;;;-1.01;93.41
30730;BME280;17476;48.458;7.928;2023-02-10T00:33:39;102018.06;;;-0.99;92.63
30730;BME280;17476;48.458;7.928;2023-02-10T00:36:11;102022.25;;;-0.95;92.41
30730;BME280;17476;48.458;7.928;2023-02-10T00:38:38;102020.94;;;-1.11;92.68
30730;BME280;17476;48.458;7.928;2023-02-10T00:41:16;102020.53;;;-0.96;92.28
30730;BME280;17476;48.458;7.928;2023-02-10T00:43:43;102024.63;;;-0.89;91.36
30730;BME280;17476;48.458;7.928;2023-02-10T00:46:11;102020.69;;;-1.00;91.70
30730;BME280;17476;48.458;7.928;2023-02-10T00:48:37;102015.38;;;-0.94;91.96
30730;BME280;17476;48.458;7.928;2023-02-10T00:51:04;102025.63;;;-0.93;91.31
30730;BME280;17476;48.458;7.928;2023-02-10T00:53:31;102017.72;;;-0.85;91.07
30730;BME280;17476;48.458;7.928;2023-02-10T00:55:57;102010.00;;;-0.85;90.16
30730;BME280;17476;48.458;7.928;2023-02-10T00:58:24;102013.56;;;-0.91;91.21
30730;BME280;17476;48.458;7.928;2023-02-10T01:00:49;102025.03;;;-1.04;91.44
30730;BME280;17476;48.458;7.928;2023-02-10T01:03:16;102018.41;;;-1.13;93.12
30730;BME280;17476;48.458;7.928;2023-02-10T01:05:42;102027.00;;;-1.14;93.59
30730;BME280;17476;48.458;7.928;2023-02-10T01:08:08;102026.34;;;-1.23;93.56
30730;BME280;17476;48.458;7.928;2023-02-10T01:10:34;102025.22;;;-1.12;93.57
30730;BME280;17476;48.458;7.928;2023-02-10T01:13:05;102037.06;;;-1.06;92.24
30730;BME280;17476;48.458;7.928;2023-02-10T01:15:32;102043.00;;;-1.04;92.24
30730;BME280;17476;48.458;7.928;2023-02-10T01:17:58;102038.50;;;-0.94;91.66
30730;BME280;17476;48.458;7.928;2023-02-10T01:20:25;102039.09;;;-0.85;90.55
30730;BME280;17476;48.458;7.928;2023-02-10T01:22:52;102046.75;;;-0.83;90.54
30730;BME280;17476;48.458;7.928;2023-02-10T01:25:18;102042.59;;;-0.87;90.50
30730;BME280;17476;48.458;7.928;2023-02-10T01:27:44;102044.91;;;-0.78;89.89
30730;BME280;17476;48.458;7.928;2023-02-10T01:30:11;102039.16;;;-0.86;89.91
30730;BME280;17476;48.458;7.928;2023-02-10T01:32:37;102046.91;;;-0.89;89.64
30730;BME280;17476;48.458;7.928;2023-02-10T01:35:03;102048.09;;;-0.68;88.52
30730;BME280;17476;48.458;7.928;2023-02-10T01:37:29;102057.69;;;-0.75;88.26
30730;BME280;17476;48.458;7.928;2023-02-10T01:39:55;102063.53;;;-0.70;88.06
30730;BME280;17476;48.458;7.928;2023-02-10T01:42:21;102075.31;;;-0.61;87.91
30730;BME280;17476;48.458;7.928;2023-02-10T01:47:13;102081.97;;;-0.88;88.39
30730;BME280;17476;48.458;7.928;2023-02-10T01:49:45;102080.66;;;-1.04;89.65
30730;BME280;17476;48.458;7.928;2023-02-10T01:52:18;102087.34;;;-0.97;90.37
30730;BME280;17476;48.458;7.928;2023-02-10T01:54:54;102089.13;;;-0.99;89.72
30730;BME280;17476;48.458;7.928;2023-02-10T01:57:21;102083.69;;;-0.89;89.17
30730;BME280;17476;48.458;7.928;2023-02-10T01:59:48;102087.94;;;-0.86;88.60
30730;BME280;17476;48.458;7.928;2023-02-10T02:02:16;102098.25;;;-0.88;88.67
30730;BME280;17476;48.458;7.928;2023-02-10T02:04:51;102077.56;;;-0.83;88.54
30730;BME280;17476;48.458;7.928;2023-02-10T02:07:20;102074.25;;;-0.87;88.58
30730;BME280;17476;48.458;7.928;2023-02-10T02:09:48;102082.75;;;-0.85;88.70
30730;BME280;17476;48.458;7.928;2023-02-10T02:12:41;102089.00;;;-0.95;88.38
30730;BME280;17476;48.458;7.928;2023-02-10T02:16:03;102079.66;;;-0.97;88.23
30730;BME280;17476;48.458;7.928;2023-02-10T02:24:46;102079.03;;;-1.08;88.60
30730;BME280;17476;48.458;7.928;2023-02-10T02:34:21;102091.81;;;-1.05;87.51
30730;BME280;17476;48.458;7.928;2023-02-10T02:36:56;102090.19;;;-1.08;87.10
30730;BME280;17476;48.458;7.928;2023-02-10T02:39:23;102086.75;;;-1.08;86.82
30730;BME280;17476;48.458;7.928;2023-02-10T02:42:18;102085.19;;;-1.14;87.71
30730;BME280;17476;48.458;7.928;2023-02-10T02:45:09;102094.41;;;-1.05;88.55
30730;BME280;17476;48.458;7.928;2023-02-10T02:59:44;102098.97;;;-1.18;88.01
30730;BME280;17476;48.458;7.928;2023-02-10T03:02:14;102102.56;;;-1.25;88.47
30730;BME280;17476;48.458;7.928;2023-02-10T03:04:42;102105.19;;;-1.28;89.08
30730;BME280;17476;48.458;7.928;2023-02-10T03:07:08;102099.75;;;-1.53;90.37
30730;BME280;17476;48.458;7.928;2023-02-10T03:09:34;102099.88;;;-1.59;90.67
30730;BME280;17476;48.458;7.928;2023-02-10T03:12:01;102100.38;;;-1.42;90.49
30730;BME280;17476;48.458;7.928;2023-02-10T03:14:27;102103.25;;;-1.57;90.41
30730;BME280;17476;48.458;7.928;2023-02-10T03:16:52;102104.94;;;-1.56;90.81
30730;BME280;17476;48.458;7.928;2023-02-10T03:19:18;102103.38;;;-1.63;91.83
30730;BME280;17476;48.458;7.928;2023-02-10T03:21:44;102107.66;;;-1.62;92.33
30730;BME280;17476;48.458;7.928;2023-02-10T03:24:10;102106.78;;;-1.63;91.70
30730;BME280;17476;48.458;7.928;2023-02-10T03:26:36;102106.72;;;-1.60;91.22
30730;BME280;17476;48.458;7.928;2023-02-10T03:29:04;102100.75;;;-1.60;91.80
30730;BME280;17476;48.458;7.928;2023-02-10T03:31:30;102097.56;;;-1.72;91.81
30730;BME280;17476;48.458;7.928;2023-02-10T03:33:56;102093.94;;;-1.61;91.10
30730;BME280;17476;48.458;7.928;2023-02-10T03:36:22;102094.25;;;-1.77;91.67
30730;BME280;17476;48.458;7.928;2023-02-10T03:38:48;102099.03;;;-1.60;92.27
30730;BME280;17476;48.458;7.928;2023-02-10T03:41:14;102102.56;;;-1.66;91.37
30730;BME280;17476;48.458;7.928;2023-02-10T03:43:40;102105.13;;;-1.66;91.77
30730;BME280;17476;48.458;7.928;2023-02-10T03:46:08;102110.44;;;-1.73;92.39
30730;BME280;17476;48.458;7.928;2023-02-10T03:48:35;102115.44;;;-1.67;92.00
30730;BME280;17476;48.458;7.928;2023-02-10T03:51:04;102116.03;;;-1.54;90.78
30730;BME280;17476;48.458;7.928;2023-02-10T03:53:31;102124.84;;;-1.68;91.76
30730;BME280;17476;48.458;7.928;2023-02-10T03:55:58;102123.88;;;-1.62;90.98
30730;BME280;17476;48.458;7.928;2023-02-10T03:58:23;102123.13;;;-1.67;91.82
30730;BME280;17476;48.458;7.928;2023-02-10T04:00:49;102123.03;;;-1.62;91.64
30730;BME280;17476;48.458;7.928;2023-02-10T04:03:15;102126.53;;;-1.67;91.54
30730;BME280;17476;48.458;7.928;2023-02-10T04:05:41;102129.00;;;-1.62;91.53
30730;BME280;17476;48.458;7.928;2023-02-10T04:08:07;102130.69;;;-1.61;91.34
30730;BME280;17476;48.458;7.928;2023-02-10T04:10:34;102137.44;;;-1.57;90.99
30730;BME280;17476;48.458;7.928;2023-02-10T04:12:59;102126.22;;;-1.51;90.70
30730;BME280;17476;48.458;7.928;2023-02-10T04:15:25;102127.94;;;-1.52;90.09
30730;BME280;17476;48.458;7.928;2023-02-10T04:17:51;102125.44;;;-1.55;90.51
30730;BME280;17476;48.458;7.928;2023-02-10T04:20:17;102130.75;;;-1.64;90.64
30730;BME280;17476;48.458;7.928;2023-02-10T04:22:43;102138.34;;;-1.59;90.40
30730;BME280;17476;48.458;7.928;2023-02-10T04:25:09;102137.44;;;-1.55;91.40
30730;BME280;17476;48.458;7.928;2023-02-10T04:27:35;102137.69;;;-1.68;91.59
30730;BME280;17476;48.458;7.928;2023-02-10T04:30:01;102133.78;;;-1.87;91.01
30730;BME280;17476;48.458;7.928;2023-02-10T04:32:27;102138.53;;;-1.67;92.20
30730;BME280;17476;48.458;7.928;2023-02-10T04:34:53;102141.72;;;-1.99;92.94
30730;BME280;17476;48.458;7.928;2023-02-10T04:37:18;102135.66;;;-1.95;93.79
30730;BME280;17476;48.458;7.928;2023-02-10T04:39:44;102141.84;;;-2.07;93.86
30730;BME280;17476;48.458;7.928;2023-02-10T04:42:10;102141.47;;;-2.33;94.76
30730;BME280;17476;48.458;7.928;2023-02-10T04:44:36;102132.59;;;-2.14;95.27
30730;BME280;17476;48.458;7.928;2023-02-10T04:47:02;102133.44;;;-2.13;94.19
30730;BME280;17476;48.458;7.928;2023-02-10T04:49:28;102135.03;;;-2.08;93.79
30730;BME280;17476;48.458;7.928;2023-02-10T04:51:54;102134.28;;;-2.13;94.31
30730;BME280;17476;48.458;7.928;2023-02-10T04:54:20;102128.19;;;-2.07;92.88
30730;BME280;17476;48.458;7.928;2023-02-10T04:56:46;102137.81;;;-2.20;93.99
30730;BME280;17476;48.458;7.928;2023-02-10T04:59:13;102139.47;;;-2.17;93.28
30730;BME280;17476;48.458;7.928;2023-02-10T05:01:42;102144.66;;;-2.21;95.06
30730;BME280;17476;48.458;7.928;2023-02-10T05:04:08;102146.38;;;-2.21;94.71
30730;BME280;17476;48.458;7.928;2023-02-10T05:06:33;102145.19;;;-2.03;94.27
30730;BME280;17476;48.458;7.928;2023-02-10T05:08:59;102144.28;;;-1.99;94.22
30730;BME280;17476;48.458;7.928;2023-02-10T05:11:25;102140.72;;;-1.92;94.25
30730;BME280;17476;48.458;7.928;2023-02-10T05:13:51;102134.81;;;-1.96;93.41
30730;BME280;17476;48.458;7.928;2023-02-10T05:16:17;102146.09;;;-2.06;93.44
30730;BME280;17476;48.458;7.928;2023-02-10T05:18:43;102145.34;;;-2.11;94.58
30730;BME280;17476;48.458;7.928;2023-02-10T05:21:12;102139.28;;;-2.07;94.15
30730;BME280;17476;48.458;7.928;2023-02-10T05:23:39;102147.16;;;-2.16;94.61
30730;BME280;17476;48.458;7.928;2023-02-10T05:26:05;102151.69;;;-2.30;94.70
30730;BME280;17476;48.458;7.928;2023-02-10T05:28:31;102141.19;;;-2.18;95.79
30730;BME280;17476;48.458;7.928;2023-02-10T05:30:57;102141.94;;;-2.10;94.61
30730;BME280;17476;48.458;7.928;2023-02-10T05:33:23;102138.41;;;-2.06;93.80
30730;BME280;17476;48.458;7.928;2023-02-10T05:35:48;102140.28;;;-2.14;94.08
30730;BME280;17476;48.458;7.928;2023-02-10T05:38:14;102144.59;;;-2.17;94.61
30730;BME280;17476;48.458;7.928;2023-02-10T05:40:40;102148.88;;;-2.18;95.19
30730;BME280;17476;48.458;7.928;2023-02-10T05:43:06;102155.97;;;-2.32;94.89
30730;BME280;17476;48.458;7.928;2023-02-10T05:45:34;102158.28;;;-2.18;94.71
30730;BME280;17476;48.458;7.928;2023-02-10T05:47:59;102160.25;;;-2.33;95.26
30730;BME280;17476;48.458;7.928;2023-02-10T05:50:25;102174.69;;;-2.27;94.27
30730;BME280;17476;48.458;7.928;2023-02-10T05:52:51;102178.16;;;-2.30;95.14
30730;BME280;17476;48.458;7.928;2023-02-10T05:55:17;102184.31;;;-2.41;94.89
30730;BME280;17476;48.458;7.928;2023-02-10T05:57:43;102181.00;;;-2.48;95.80
30730;BME280;17476;48.458;7.928;2023-02-10T06:00:10;102186.88;;;-2.41;96.64
30730;BME280;17476;48.458;7.928;2023-02-10T06:02:36;102191.78;;;-2.28;94.97
30730;BME280;17476;48.458;7.928;2023-02-10T06:05:01;102193.41;;;-2.22;95.26
30730;BME280;17476;48.458;7.928;2023-02-10T06:07:27;102190.84;;;-2.22;94.28
30730;BME280;17476;48.458;7.928;2023-02-10T06:09:53;102190.81;;;-2.21;93.77
30730;BME280;17476;48.458;7.928;2023-02-10T06:12:19;102201.97;;;-2.25;93.26
30730;BME280;17476;48.458;7.928;2023-02-10T06:14:45;102205.19;;;-2.13;92.60
30730;BME280;17476;48.458;7.928;2023-02-10T06:17:11;102201.59;;;-2.03;93.29
30730;BME280;17476;48.458;7.928;2023-02-10T06:19:38;102204.91;;;-1.98;92.33
30730;BME280;17476;48.458;7.928;2023-02-10T06:22:06;102208.34;;;-1.99;92.28
30730;BME280;17476;48.458;7.928;2023-02-10T06:24:32;102214.47;;;-2.06;92.60
30730;BME280;17476;48.458;7.928;2023-02-10T06:26:58;102222.94;;;-2.01;92.47
30730;BME280;17476;48.458;7.928;2023-02-10T06:29:24;102221.19;;;-1.99;91.67
30730;BME280;17476;48.458;7.928;2023-02-10T06:31:53;102222.06;;;-2.00;91.61
30730;BME280;17476;48.458;7.928;2023-02-10T06:34:19;102230.47;;;-1.94;90.48
30730;BME280;17476;48.458;7.928;2023-02-10T06:36:45;102231.53;;;-2.05;91.86
30730;BME280;17476;48.458;7.928;2023-02-10T06:39:11;102223.91;;;-2.08;91.69
30730;BME280;17476;48.458;7.928;2023-02-10T06:41:37;102231.53;;;-2.05;91.63
30730;BME280;17476;48.458;7.928;2023-02-10T06:44:03;102227.03;;;-1.93;90.74
30730;BME280;17476;48.458;7.928;2023-02-10T06:46:29;102236.63;;;-2.02;90.78
30730;BME280;17476;48.458;7.928;2023-02-10T06:48:55;102233.22;;;-2.03;91.29
30730;BME280;17476;48.458;7.928;2023-02-10T06:51:21;102238.38;;;-2.06;90.84
30730;BME280;17476;48.458;7.928;2023-02-10T06:53:48;102241.13;;;-2.15;91.82
30730;BME280;17476;48.458;7.928;2023-02-10T06:56:13;102241.03;;;-2.12;91.66
30730;BME280;17476;48.458;7.928;2023-02-10T06:58:39;102242.13;;;-2.25;91.99
30730;BME280;17476;48.458;7.928;2023-02-10T07:01:10;102237.63;;;-2.12;92.63
30730;BME280;17476;48.458;7.928;2023-02-10T07:03:37;102242.25;;;-2.33;93.20
30730;BME280;17476;48.458;7.928;2023-02-10T07:06:03;102239.53;;;-2.24;93.17
30730;BME280;17476;48.458;7.928;2023-02-10T07:08:30;102238.88;;;-2.35;93.38
30730;BME280;17476;48.458;7.928;2023-02-10T07:10:56;102245.56;;;-2.26;93.85
30730;BME280;17476;48.458;7.928;2023-02-10T07:13:21;102241.63;;;-2.47;95.19
30730;BME280;17476;48.458;7.928;2023-02-10T07:15:47;102245.00;;;-2.45;95.63
30730;BME280;17476;48.458;7.928;2023-02-10T07:18:13;102242.25;;;-2.33;95.01
30730;BME280;17476;48.458;7.928;2023-02-10T07:20:39;102243.38;;;-2.49;96.32
30730;BME280;17476;48.458;7.928;2023-02-10T07:23:05;102238.00;;;-2.34;95.37
30730;BME280;17476;48.458;7.928;2023-02-10T07:25:31;102237.06;;;-2.28;95.62
30730;BME280;17476;48.458;7.928;2023-02-10T07:27:57;102236.88;;;-2.17;95.45
30730;BME280;17476;48.458;7.928;2023-02-10T07:30:23;102238.63;;;-2.20;95.31
30730;BME280;17476;48.458;7.928;2023-02-10T07:32:49;102241.16;;;-2.16;95.91
30730;BME280;17476;48.458;7.928;2023-02-10T07:35:15;102239.38;;;-2.14;96.54
30730;BME280;17476;48.458;7.928;2023-02-10T07:37:41;102231.66;;;-2.13;96.35
30730;BME280;17476;48.458;7.928;2023-02-10T07:40:09;102239.28;;;-2.08;96.73
30730;BME280;17476;48.458;7.928;2023-02-10T07:42:35;102230.16;;;-1.75;95.50
30730;BME280;17476;48.458;7.928;2023-02-10T07:45:01;102237.72;;;-1.68;94.67
30730;BME280;17476;48.458;7.928;2023-02-10T07:47:27;102229.94;;;-1.65;94.29
30730;BME280;17476;48.458;7.928;2023-02-10T07:49:53;102226.94;;;-1.42;93.79
30730;BME280;17476;48.458;7.928;2023-02-10T07:52:21;102225.16;;;-1.38;92.68
30730;BME280;17476;48.458;7.928;2023-02-10T07:54:48;102231.03;;;-1.33;93.75
30730;BME280;17476;48.458;7.928;2023-02-10T07:57:14;102232.44;;;-1.18;92.23
30730;BME280;17476;48.458;7.928;2023-02-10T07:59:40;102240.22;;;-1.21;92.06
30730;BME280;17476;48.458;7.928;2023-02-10T08:02:09;102236.50;;;-1.06;92.05
30730;BME280;17476;48.458;7.928;2023-02-10T08:04:35;102247.59;;;-1.06;92.19
30730;BME280;17476;48.458;7.928;2023-02-10T08:07:01;102238.50;;;-1.21;92.46
30730;BME280;17476;48.458;7.928;2023-02-10T08:09:26;102240.06;;;-1.14;93.01
30730;BME280;17476;48.458;7.928;2023-02-10T08:11:52;102241.50;;;-1.00;93.54
30730;BME280;17476;48.458;7.928;2023-02-10T08:14:18;102255.47;;;-0.73;93.13
30730;BME280;17476;48.458;7.928;2023-02-10T08:16:44;102243.09;;;-0.58;90.98
30730;BME280;17476;48.458;7.928;2023-02-10T08:19:10;102251.78;;;-0.63;91.81
30730;BME280;17476;48.458;7.928;2023-02-10T08:21:36;102257.16;;;-0.37;91.42
30730;BME280;17476;48.458;7.928;2023-02-10T08:24:01;102250.56;;;-0.11;90.18
30730;BME280;17476;48.458;7.928;2023-02-10T08:26:27;102252.50;;;-0.21;89.84
30730;BME280;17476;48.458;7.928;2023-02-10T08:28:53;102265.69;;;0.01;90.88
30730;BME280;17476;48.458;7.928;2023-02-10T08:31:21;102267.56;;;0.27;90.26
30730;BME280;17476;48.458;7.928;2023-02-10T08:33:47;102266.78;;;0.58;88.82
30730;BME280;17476;48.458;7.928;2023-02-10T08:36:16;102271.88;;;0.90;87.26
30730;BME280;17476;48.458;7.928;2023-02-10T08:38:42;102272.34;;;1.03;85.68
30730;BME280;17476;48.458;7.928;2023-02-10T08:41:09;102274.88;;;0.75;86.76
30730;BME280;17476;48.458;7.928;2023-02-10T08:43:35;102274.44;;;0.90;87.68
30730;BME280;17476;48.458;7.928;2023-02-10T08:46:02;102275.28;;;0.91;87.43
30730;BME280;17476;48.458;7.928;2023-02-10T08:48:28;102269.69;;;1.06;86.92
30730;BME280;17476;48.458;7.928;2023-02-10T08:50:53;102258.69;;;1.29;85.74
30730;BME280;17476;48.458;7.928;2023-02-10T08:53:20;102255.13;;;1.33;85.87
30730;BME280;17476;48.458;7.928;2023-02-10T08:56:01;102258.78;;;1.80;81.96
30730;BME280;17476;48.458;7.928;2023-02-10T08:58:27;102265.16;;;1.69;86.15
30730;BME280;17476;48.458;7.928;2023-02-10T09:00:53;102262.69;;;1.92;85.66
30730;BME280;17476;48.458;7.928;2023-02-10T09:03:19;102257.84;;;2.08;83.81
30730;BME280;17476;48.458;7.928;2023-02-10T09:05:45;102249.66;;;1.97;84.14
30730;BME280;17476;48.458;7.928;2023-02-10T09:08:12;102240.75;;;2.05;87.14
30730;BME280;17476;48.458;7.928;2023-02-10T09:10:39;102238.53;;;2.68;83.59
30730;BME280;17476;48.458;7.928;2023-02-10T09:13:06;102233.16;;;2.74;84.46
30730;BME280;17476;48.458;7.928;2023-02-10T09:15:37;102235.31;;;3.08;80.02
30730;BME280;17476;48.458;7.928;2023-02-10T09:18:04;102243.97;;;3.29;79.05
30730;BME280;17476;48.458;7.928;2023-02-10T09:20:30;102242.72;;;3.39;80.26
30730;BME280;17476;48.458;7.928;2023-02-10T09:22:56;102242.72;;;3.81;80.92
30730;BME280;17476;48.458;7.928;2023-02-10T09:25:22;102236.25;;;4.32;76.30
30730;BME280;17476;48.458;7.928;2023-02-10T09:27:47;102236.16;;;4.73;73.23
30730;BME280;17476;48.458;7.928;2023-02-10T09:30:14;102235.69;;;4.84;74.30
30730;BME280;17476;48.458;7.928;2023-02-10T09:32:40;102244.50;;;4.99;71.99
30730;BME280;17476;48.458;7.928;2023-02-10T09:35:06;102239.94;;;5.23;71.88
30730;BME280;17476;48.458;7.928;2023-02-10T09:37:31;102239.00;;;5.42;69.43
30730;BME280;17476;48.458;7.928;2023-02-10T09:39:57;102237.13;;;5.63;69.43
30730;BME280;17476;48.458;7.928;2023-02-10T09:42:51;102238.34;;;5.73;73.75
30730;BME280;17476;48.458;7.928;2023-02-10T09:45:26;102236.81;;;5.69;69.47
30730;BME280;17476;48.458;7.928;2023-02-10T09:51:52;102240.91;;;5.92;69.23
30730;BME280;17476;48.458;7.928;2023-02-10T09:53:55;102238.44;;;6.07;67.01
30730;BME280;17476;48.458;7.928;2023-02-10T09:56:21;102236.41;;;6.29;64.06
30730;BME280;17476;48.458;7.928;2023-02-10T09:58:57;102237.66;;;6.22;66.35
30730;BME280;17476;48.458;7.928;2023-02-10T10:01:50;102241.56;;;6.13;70.29
30730;BME280;17476;48.458;7.928;2023-02-10T10:04:21;102237.72;;;6.71;67.22
30730;BME280;17476;48.458;7.928;2023-02-10T10:06:58;102240.47;;;6.83;66.95
30730;BME280;17476;48.458;7.928;2023-02-10T10:09:42;102242.84;;;6.88;66.73
30730;BME280;17476;48.458;7.928;2023-02-10T10:12:19;102238.81;;;6.98;67.14
30730;BME280;17476;48.458;7.928;2023-02-10T10:14:45;102230.78;;;7.79;64.53
30730;BME280;17476;48.458;7.928;2023-02-10T10:26:12;102240.91;;;10.82;51.31
30730;BME280;17476;48.458;7.928;2023-02-10T10:31:33;102237.47;;;10.69;51.79
30730;BME280;17476;48.458;7.928;2023-02-10T10:34:14;102238.53;;;11.03;49.09
30730;BME280;17476;48.458;7.928;2023-02-10T10:36:55;102240.13;;;11.53;53.02
30730;BME280;17476;48.458;7.928;2023-02-10T10:39:36;102238.47;;;11.28;48.44
30730;BME280;17476;48.458;7.928;2023-02-10T10:42:41;102232.06;;;12.02;46.92
30730;BME280;17476;48.458;7.928;2023-02-10T10:45:39;102214.81;;;12.56;45.44
30730;BME280;17476;48.458;7.928;2023-02-10T10:48:09;102214.97;;;13.09;47.13
30730;BME280;17476;48.458;7.928;2023-02-10T10:50:38;102214.31;;;13.81;44.08
30730;BME280;17476;48.458;7.928;2023-02-10T10:53:19;102211.53;;;14.24;44.83
30730;BME280;17476;48.458;7.928;2023-02-10T10:55:51;102210.00;;;14.01;44.11
30730;BME280;17476;48.458;7.928;2023-02-10T10:58:39;102206.59;;;14.40;41.12
30730;BME280;17476;48.458;7.928;2023-02-10T11:01:06;102200.44;;;15.20;39.68
30730;BME280;17476;48.458;7.928;2023-02-10T11:03:33;102199.88;;;15.46;40.09
30730;BME280;17476;48.458;7.928;2023-02-10T11:06:16;102201.28;;;15.69;37.37
30730;BME280;17476;48.458;7.928;2023-02-10T11:08:55;102199.28;;;15.91;39.09
30730;BME280;17476;48.458;7.928;2023-02-10T11:11:40;102183.63;;;16.54;37.92
30730;BME280;17476;48.458;7.928;2023-02-10T11:14:23;102188.78;;;16.46;35.60
30730;BME280;17476;48.458;7.928;2023-02-10T11:16:58;102186.53;;;16.51;35.51
30730;BME280;17476;48.458;7.928;2023-02-10T11:19:33;102179.31;;;16.98;34.94
30730;BME280;17476;48.458;7.928;2023-02-10T11:22:00;102178.25;;;17.44;34.62
30730;BME280;17476;48.458;7.928;2023-02-10T11:24:31;102187.28;;;17.60;35.00
30730;BME280;17476;48.458;7.928;2023-02-10T11:27:02;102187.81;;;17.63;35.27
30730;BME280;17476;48.458;7.928;2023-02-10T11:29:32;102186.63;;;17.40;33.28
30730;BME280;17476;48.458;7.928;2023-02-10T11:31:59;102190.66;;;17.44;35.35
30730;BME280;17476;48.458;7.928;2023-02-10T11:34:32;102189.81;;;17.61;33.66
30730;BME280;17476;48.458;7.928;2023-02-10T11:37:12;102177.63;;;17.68;33.53
30730;BME280;17476;48.458;7.928;2023-02-10T11:39:44;102179.94;;;17.89;34.98
30730;BME280;17476;48.458;7.928;2023-02-10T11:42:34;102177.63;;;18.28;32.37
30730;BME280;17476;48.458;7.928;2023-02-10T11:45:23;102173.78;;;18.57;32.18
30730;BME280;17476;48.458;7.928;2023-02-10T11:48:19;102177.53;;;18.46;32.51
30730;BME280;17476;48.458;7.928;2023-02-10T11:50:45;102178.81;;;18.34;32.11
30730;BME280;17476;48.458;7.928;2023-02-10T11:53:28;102178.38;;;18.13;34.54
30730;BME280;17476;48.458;7.928;2023-02-10T11:58:53;102168.84;;;18.28;33.08
30730;BME280;17476;48.458;7.928;2023-02-10T12:01:57;102169.22;;;17.99;32.66
30730;BME280;17476;48.458;7.928;2023-02-10T12:09:55;102162.34;;;18.14;33.90
30730;BME280;17476;48.458;7.928;2023-02-10T12:12:47;102156.53;;;18.53;35.35
30730;BME280;17476;48.458;7.928;2023-02-10T12:18:22;102148.00;;;18.75;34.75
30730;BME280;17476;48.458;7.928;2023-02-10T12:24:46;102146.00;;;19.51;31.45
30730;BME280;17476;48.458;7.928;2023-02-10T12:30:38;102136.09;;;19.28;30.90
30730;BME280;17476;48.458;7.928;2023-02-10T12:42:15;102123.63;;;19.53;31.32
30730;BME280;17476;48.458;7.928;2023-02-10T12:47:44;102126.81;;;20.12;29.50
30730;BME280;17476;48.458;7.928;2023-02-10T12:53:17;102123.50;;;19.22;30.96
30730;BME280;17476;48.458;7.928;2023-02-10T13:03:48;102122.03;;;18.37;33.26
30730;BME280;17476;48.458;7.928;2023-02-10T13:07:13;102124.22;;;18.49;31.47
30730;BME280;17476;48.458;7.928;2023-02-10T13:13:12;102111.41;;;19.12;34.58
30730;BME280;17476;48.458;7.928;2023-02-10T13:18:31;102109.09;;;18.25;31.91
30730;BME280;17476;48.458;7.928;2023-02-10T13:21:41;102107.72;;;18.13;32.12
30730;BME280;17476;48.458;7.928;2023-02-10T13:24:24;102107.91;;;18.28;32.28
30730;BME280;17476;48.458;7.928;2023-02-10T13:27:10;102105.88;;;18.64;32.08
30730;BME280;17476;48.458;7.928;2023-02-10T13:30:32;102100.78;;;18.71;30.42
30730;BME280;17476;48.458;7.928;2023-02-10T13:35:47;102107.66;;;17.97;34.67
30730;BME280;17476;48.458;7.928;2023-02-10T13:38:18;102108.38;;;17.81;35.89
30730;BME280;17476;48.458;7.928;2023-02-10T13:40:48;102112.09;;;17.88;35.33
30730;BME280;17476;48.458;7.928;2023-02-10T13:43:31;102107.53;;;18.15;33.32
30730;BME280;17476;48.458;7.928;2023-02-10T13:46:00;102112.44;;;18.01;34.73
30730;BME280;17476;48.458;7.928;2023-02-10T13:48:30;102112.09;;;17.88;35.70
30730;BME280;17476;48.458;7.928;2023-02-10T13:51:02;102112.16;;;17.53;37.02
30730;BME280;17476;48.458;7.928;2023-02-10T13:56:25;102107.94;;;17.16;34.77
30730;BME280;17476;48.458;7.928;2023-02-10T14:01:48;102125.25;;;15.26;39.28
30730;BME280;17476;48.458;7.928;2023-02-10T14:06:52;102115.78;;;15.33;40.54
30730;BME280;17476;48.458;7.928;2023-02-10T14:11:59;102118.72;;;14.72;39.31
30730;BME280;17476;48.458;7.928;2023-02-10T14:14:38;102122.75;;;14.26;42.23
30730;BME280;17476;48.458;7.928;2023-02-10T14:17:22;102118.94;;;14.09;43.11
30730;BME280;17476;48.458;7.928;2023-02-10T14:19:58;102124.84;;;14.02;43.07
30730;BME280;17476;48.458;7.928;2023-02-10T14:22:33;102125.50;;;13.94;44.07
30730;BME280;17476;48.458;7.928;2023-02-10T14:25:19;102118.31;;;14.27;41.16
30730;BME280;17476;48.458;7.928;2023-02-10T14:27:53;102116.56;;;14.06;42.21
30730;BME280;17476;48.458;7.928;2023-02-10T14:30:43;102117.69;;;14.13;42.90
30730;BME280;17476;48.458;7.928;2023-02-10T14:33:27;102109.72;;;14.25;42.20
30730;BME280;17476;48.458;7.928;2023-02-10T14:36:00;102113.72;;;13.88;42.33
30730;BME280;17476;48.458;7.928;2023-02-10T14:38:32;102123.84;;;13.09;41.71
30730;BME280;17476;48.458;7.928;2023-02-10T14:41:02;102119.59;;;12.97;43.52
30730;BME280;17476;48.458;7.928;2023-02-10T14:43:31;102125.16;;;12.72;42.00
30730;BME280;17476;48.458;7.928;2023-02-10T14:45:59;102114.38;;;13.18;40.36
30730;BME280;17476;48.458;7.928;2023-02-10T14:48:27;102113.34;;;13.09;41.45
30730;BME280;17476;48.458;7.928;2023-02-10T14:51:06;102115.13;;;12.77;42.20
30730;BME280;17476;48.458;7.928;2023-02-10T14:53:34;102112.44;;;12.67;42.03